Airfield :
LOGIN :

Register | Disclaimer

   EN    FR    IT 

 










Legend :    VFR   Marginal VFR   IFR   Intensive IFR   Very Intensive IFR
Visi :
Ceiling :
>= 8 km
>= 3000ft
5 to 8 km
1000 to 3000 ft
1500m to 5 km
500 to 1000 ft
800 to 1500m
200 to 500 ft
< 800m
< 200 ft
Symbols :   Thunderstorms  Fog  Heavy snow  Heavy precipitations  Wind > 20 kt
SIGMETs :     Misc.  Thunderstorms  Icing  Turbulence  Mountain Waves  Volcanic Ashes






- Airport Elevation : 297 ft
- IATA code : UIP


LFRQ - Quimper Pluguffan

CURRENT METAR :
  • 270600Z AUTO 27007KT 9999 FEW004 OVC009 10/10 Q1017 TEMPO 2000 -RADZ OVC002

EXPIRED METARs :
  • 270530Z AUTO 28007KT 6000 OVC005 10/10 Q1017 TEMPO 2000 -RADZ
  • 270500Z AUTO 27008KT 9999 OVC005 10/10 Q1016
  • 270430Z AUTO 27007KT 9999 BKN005 OVC009 11/11 Q1016
  • 270400Z AUTO 27006KT 4800 BR OVC004 11/11 Q1016
  • 270330Z AUTO 29007KT 6000 BKN004 OVC008 10/10 Q1016

TAF TAF LFRQ
Valid from the 27 at 06:00 until the 28 at 06:00 UTC


270500Z 2706/2806 27006KT 9999 BKN006
TEMPO 2706/2806 2000 -RADZ OVC002
BECMG 2720/2722 25015G25KT



MET'MAP, your aeronautical weather chart ! - Copyright ORBIFLY December 2007 - Disclaimer

ORBIFLY MET'MAP TEAM :

Programming & Development : Alexandra Zaïnal
Concept & original design : Baudouin d'Aumeries
Assistance for programming : Marc-Olivier Méhu
Technical & hardware support : Manuel Goepfert

Contact : metmap@orbifly.com




SOURCES & CREDITS :

   NOAA